Create Tblcommutelog Verified Points Advance Search
| # | Trip ID | Id Commuter | Trip Date | Trip Num | Current Lat | Current Lng | Delta Distance | Current Time | Activity | Activity Confidence | Current Speed | |
|---|---|---|---|---|---|---|---|---|---|---|---|---|
| 70481 | 260205_783292_16651014_1601 | 783292 | (not set) | (not set) | 38.897431615865 | -77.028445311187 | 11.0925 | 2026-02-05 17:03:56 | still | 33 | -0.44703925898772 | |
| 70482 | 260205_783292_16651014_1601 | 783292 | (not set) | (not set) | 38.897431615865 | -77.028445311187 | 11.0925 | 2026-02-05 17:03:56 | still | 33 | -0.44703925898772 | |
| 70483 | 260205_787735_16656247_1638 | 787735 | (not set) | (not set) | 39.14998033016 | -77.227330081457 | 15.8513 | 2026-02-05 17:03:58 | in_vehicle | 100 | 2.5928277021288 | |
| 70484 | 260205_787735_16656247_1638 | 787735 | (not set) | (not set) | 39.14998033016 | -77.227330081457 | 15.8513 | 2026-02-05 17:03:58 | in_vehicle | 100 | 2.5928277021288 | |
| 70485 | 260205_783320_16651053_1618 | 783320 | (not set) | (not set) | 38.900282993836 | -77.19900205958 | 10.6777 | 2026-02-05 17:03:59 | in_vehicle | 100 | 2.0116766654448 | |
| 70486 | 260205_783320_16651053_1618 | 783320 | (not set) | (not set) | 38.900282993836 | -77.19900205958 | 10.6777 | 2026-02-05 17:03:59 | in_vehicle | 100 | 2.0116766654448 | |
| 70487 | 260205_787515_0_1659 | 787515 | (not set) | (not set) | 39.289150268849 | -76.615408268555 | 0 | 2026-02-05 17:03:59 | on_foot | 100 | -0.44703925898772 | |
| 70488 | 260205_787515_0_1659 | 787515 | (not set) | (not set) | 39.289150268849 | -76.615408268555 | 0.2321 | 2026-02-05 17:03:59 | on_foot | 100 | -0.44703925898772 | |
| 70489 | 260205_789002_16657758_1647 | 789002 | (not set) | (not set) | 38.901998598736 | -77.07020002411 | 0.8018 | 2026-02-05 17:04:00 | on_foot | 100 | 0.60350299963343 | |
| 70490 | 260205_788308_16656907_1633 | 788308 | (not set) | (not set) | 39.330986137334 | -78.066874581573 | 26.9781 | 2026-02-05 17:04:02 | in_vehicle | 100 | 12.834497125538 | |
| 70491 | 260205_786124_6441454_1633 | 786124 | (not set) | (not set) | 39.149868541225 | -77.217738174463 | 12.6669 | 2026-02-05 17:04:02 | in_vehicle | 100 | 4.8280239970674 | |
| 70492 | 260205_785147_16653236_1647 | 785147 | (not set) | (not set) | 39.0758049 | -77.489908516667 | 8.7509 | 2026-02-05 17:04:02 | in_vehicle | 100 | 6.0484411741039 | |
| 70493 | 260205_788304_16660470_1659 | 788304 | (not set) | (not set) | 38.804352260495 | -77.044892337685 | 0.0306 | 2026-02-05 17:04:03 | on_foot | 100 | -0.44703925898772 | |
| 70494 | 260205_788304_16660470_1659 | 788304 | (not set) | (not set) | 38.804352260495 | -77.044892337685 | 0 | 2026-02-05 17:04:03 | on_foot | 100 | -0.44703925898772 | |
| 70495 | 260205_790229_16659220_1606 | 790229 | (not set) | (not set) | 38.804542200109 | -77.111510541385 | 11.332 | 2026-02-05 17:04:04 | in_vehicle | 100 | 5.7489248705821 | |
| 70496 | 260205_787145_16655582_1610 | 787145 | (not set) | (not set) | 38.777530465218 | -77.195821557586 | 13.5716 | 2026-02-05 17:04:03 | in_vehicle | 100 | 7.8544797804143 | |
| 70497 | 260205_790229_16659220_1606 | 790229 | (not set) | (not set) | 38.804542200109 | -77.111510541385 | 11.332 | 2026-02-05 17:04:04 | in_vehicle | 100 | 5.7489248705821 | |
| 70498 | 260205_790229_16659220_1606 | 790229 | (not set) | (not set) | 38.804542200109 | -77.111510541385 | 11.332 | 2026-02-05 17:04:04 | in_vehicle | 100 | 5.7489248705821 | |
| 70499 | 260205_765748_16632658_1624 | 765748 | (not set) | (not set) | 39.036962165992 | -76.905789243044 | 12.5521 | 2026-02-05 17:04:05 | unknown | 100 | 13.10272068093 | |
| 70500 | 260205_698742_16660846_1646 | 698742 | (not set) | (not set) | 38.808745806029 | -77.153798607732 | 9.3766 | 2026-02-05 17:04:05 | in_vehicle | 100 | 14.417016102354 |